createdAt,value
2022-07-28T00:01:21.683Z,96595.28
2022-07-28T00:03:49.590Z,96589.09
2022-07-28T00:06:19.101Z,96585.25
2022-07-28T00:08:47.183Z,96586.44
2022-07-28T00:11:15.515Z,96582.56
2022-07-28T00:13:43.493Z,96581.06
2022-07-28T00:16:11.568Z,96577.75
2022-07-28T00:18:39.700Z,96580.31
2022-07-28T00:21:07.794Z,96577.63
2022-07-28T00:23:39.434Z,96568.06
2022-07-28T00:26:08.902Z,96575.94
2022-07-28T00:28:37.693Z,96569.13
2022-07-28T00:31:09.066Z,96564.59
2022-07-28T00:33:40.082Z,96565.78
2022-07-28T00:36:11.410Z,96568.47
2022-07-28T00:38:44.443Z,96569.00
2022-07-28T00:41:19.683Z,96558.59
2022-07-28T00:43:49.376Z,96567.66
2022-07-28T00:46:20.574Z,96566.00
2022-07-28T00:48:50.875Z,96557.63
2022-07-28T00:51:21.171Z,96552.63
2022-07-28T00:53:50.472Z,96544.44
2022-07-28T00:56:19.800Z,96555.66
2022-07-28T00:58:48.723Z,96552.97
2022-07-28T01:01:19.993Z,96557.81
2022-07-28T01:03:51.435Z,96562.03
2022-07-28T01:06:33.297Z,96558.03
2022-07-28T01:09:15.324Z,96563.72
2022-07-28T01:11:55.228Z,96556.88
2022-07-28T01:14:30.561Z,96553.50
2022-07-28T01:17:05.014Z,96553.84
2022-07-28T01:19:40.812Z,96553.84
2022-07-28T01:22:12.684Z,96547.16
2022-07-28T01:24:53.830Z,96543.50
2022-07-28T01:27:36.904Z,96545.50
2022-07-28T01:30:12.050Z,96545.19
2022-07-28T01:32:45.269Z,96551.72
2022-07-28T01:35:17.093Z,96542.69
2022-07-28T01:37:48.423Z,96543.88
2022-07-28T01:40:19.202Z,96536.19
2022-07-28T01:42:49.848Z,96537.03
2022-07-28T01:45:19.844Z,96539.38
2022-07-28T01:47:52.594Z,96542.03
2022-07-28T01:50:22.757Z,96539.34
2022-07-28T01:52:52.244Z,96532.84
2022-07-28T01:55:23.162Z,96525.66
2022-07-28T01:57:54.475Z,96520.66
2022-07-28T02:00:25.072Z,96522.16
2022-07-28T02:02:59.595Z,96513.81
2022-07-28T02:05:28.877Z,96516.13
2022-07-28T02:07:59.882Z,96512.81
2022-07-28T02:10:30.166Z,96516.47
2022-07-28T02:12:59.757Z,96512.16
2022-07-28T02:15:29.596Z,96508.13
2022-07-28T02:18:00.838Z,96505.13
2022-07-28T02:20:30.563Z,96502.47
2022-07-28T02:22:59.520Z,96493.09
2022-07-28T02:25:30.806Z,96503.47
2022-07-28T02:28:02.233Z,96497.59
2022-07-28T02:30:36.924Z,96500.09
2022-07-28T02:33:12.343Z,96490.09
2022-07-28T02:35:48.891Z,96495.78
2022-07-28T02:38:22.226Z,96491.06
2022-07-28T02:40:53.013Z,96497.72
2022-07-28T02:43:45.025Z,96498.22
2022-07-28T02:46:21.258Z,96499.22
2022-07-28T02:48:57.689Z,96501.53
2022-07-28T02:51:29.624Z,96501.34
2022-07-28T02:53:59.324Z,96502.50
2022-07-28T02:56:27.988Z,96499.03
2022-07-28T02:58:56.616Z,96490.69
2022-07-28T03:01:25.625Z,96487.69
2022-07-28T03:03:55.708Z,96484.16
2022-07-28T03:06:26.494Z,96491.34
2022-07-28T03:08:56.853Z,96489.69
2022-07-28T03:11:24.829Z,96483.69
2022-07-28T03:13:53.120Z,96497.03
2022-07-28T03:16:21.077Z,96492.50
2022-07-28T03:18:50.827Z,96483.69
2022-07-28T03:21:20.212Z,96493.19
2022-07-28T03:23:50.047Z,96497.66
2022-07-28T03:26:24.579Z,96498.81
2022-07-28T03:28:54.638Z,96494.16
2022-07-28T03:31:23.742Z,96492.00
2022-07-28T03:33:52.397Z,96494.81
2022-07-28T03:36:30.350Z,96498.16
2022-07-28T03:39:02.938Z,96495.34
2022-07-28T03:41:33.326Z,96498.50
2022-07-28T03:44:02.628Z,96502.81
2022-07-28T03:46:30.766Z,96506.84
2022-07-28T03:48:58.792Z,96508.16
2022-07-28T03:51:29.647Z,96505.31
2022-07-28T03:53:57.611Z,96509.63
2022-07-28T03:56:25.607Z,96512.94
2022-07-28T03:58:53.503Z,96512.41
2022-07-28T04:01:21.753Z,96521.56
2022-07-28T04:03:49.712Z,96517.56
2022-07-28T04:06:17.650Z,96520.53
2022-07-28T04:08:46.921Z,96521.00
2022-07-28T04:11:14.816Z,96519.22
2022-07-28T04:13:42.801Z,96522.16
2022-07-28T04:16:10.747Z,96510.81
2022-07-28T04:18:39.425Z,96522.81
2022-07-28T04:21:07.828Z,96517.50
2022-07-28T04:23:35.749Z,96520.16
2022-07-28T04:26:05.407Z,96521.31
2022-07-28T04:28:33.360Z,96518.13
2022-07-28T04:31:01.402Z,96518.66
2022-07-28T04:33:30.698Z,96523.50
2022-07-28T04:36:00.810Z,96515.00
2022-07-28T04:38:29.013Z,96517.38
2022-07-28T04:40:58.032Z,96513.66
2022-07-28T04:43:27.375Z,96510.81
2022-07-28T04:45:55.394Z,96513.13
2022-07-28T04:48:24.000Z,96511.97
2022-07-28T04:50:53.629Z,96513.81
2022-07-28T04:53:22.492Z,96513.19
2022-07-28T04:55:51.717Z,96510.31
2022-07-28T04:58:21.682Z,96520.50
2022-07-28T05:00:53.130Z,96511.22
2022-07-28T05:03:21.957Z,96514.22
2022-07-28T05:05:54.504Z,96507.69
2022-07-28T05:08:25.642Z,96516.69
2022-07-28T05:10:56.199Z,96518.19
2022-07-28T05:13:26.775Z,96518.22
2022-07-28T05:15:58.519Z,96513.09
2022-07-28T05:18:26.488Z,96512.78
2022-07-28T05:20:54.390Z,96509.94
2022-07-28T05:23:22.278Z,96510.94
2022-07-28T05:25:50.528Z,96516.28
2022-07-28T05:28:18.532Z,96518.66
2022-07-28T05:30:46.926Z,96516.63
2022-07-28T05:33:17.533Z,96510.66
2022-07-28T05:35:53.471Z,96514.34
2022-07-28T05:38:21.944Z,96512.38
2022-07-28T05:40:50.339Z,96510.38
2022-07-28T05:43:18.381Z,96509.72
2022-07-28T05:45:46.650Z,96512.06
2022-07-28T05:48:14.661Z,96513.06
2022-07-28T05:50:43.903Z,96513.41
2022-07-28T05:53:11.914Z,96508.25
2022-07-28T05:56:00.760Z,96509.59
2022-07-28T05:58:28.070Z,96510.47
2022-07-28T06:00:59.934Z,96510.97
2022-07-28T06:03:30.549Z,96512.47
2022-07-28T06:06:14.604Z,96500.44
2022-07-28T06:08:45.470Z,96505.09
2022-07-28T06:11:22.317Z,96499.78
2022-07-28T06:13:51.384Z,96502.09
2022-07-28T06:16:20.779Z,96504.56
2022-07-28T06:18:48.951Z,96500.72
2022-07-28T06:21:18.325Z,96494.00
2022-07-28T06:23:46.446Z,96503.88
2022-07-28T06:26:14.382Z,96503.34
2022-07-28T06:28:42.299Z,96500.66
2022-07-28T06:31:10.289Z,96503.28
2022-07-28T06:33:38.416Z,96495.91
2022-07-28T06:36:06.673Z,96495.50
2022-07-28T06:38:36.128Z,96501.47
2022-07-28T06:41:04.177Z,96501.59
2022-07-28T06:43:36.845Z,96499.25
2022-07-28T06:46:06.552Z,96498.81
2022-07-28T06:48:37.457Z,96494.59
2022-07-28T06:51:05.774Z,96498.41
2022-07-28T06:53:35.077Z,96495.53
2022-07-28T06:56:04.756Z,96498.81
2022-07-28T06:58:33.275Z,96498.94
2022-07-28T07:01:02.488Z,96499.22
2022-07-28T07:03:30.509Z,96496.66
2022-07-28T07:05:58.373Z,96496.75
2022-07-28T07:08:26.480Z,96493.66
2022-07-28T07:10:56.866Z,96496.44
2022-07-28T07:13:25.227Z,96494.41
2022-07-28T07:15:53.250Z,96494.31
2022-07-28T07:18:21.218Z,96498.25
2022-07-28T07:20:49.105Z,96496.84
2022-07-28T07:23:16.999Z,96496.13
2022-07-28T07:25:44.888Z,96494.38
2022-07-28T07:28:14.129Z,96488.19
2022-07-28T07:30:42.057Z,96492.91
2022-07-28T07:33:10.412Z,96497.38
2022-07-28T07:35:38.940Z,96491.78
2022-07-28T07:38:07.222Z,96491.41
2022-07-28T07:40:35.251Z,96489.56
2022-07-28T07:43:03.241Z,96489.81
2022-07-28T07:45:34.504Z,96492.41
2022-07-28T07:48:03.172Z,96491.91
2022-07-28T07:50:31.370Z,96494.91
2022-07-28T07:52:59.585Z,96494.34
2022-07-28T07:55:27.777Z,96489.78
2022-07-28T07:58:02.477Z,96492.38
2022-07-28T08:00:32.114Z,96485.22
2022-07-28T08:03:01.029Z,96490.22
2022-07-28T08:05:34.701Z,96479.53
2022-07-28T08:08:05.878Z,96487.00
2022-07-28T08:10:34.277Z,96485.81
2022-07-28T08:13:03.237Z,96485.19
2022-07-28T08:15:32.612Z,96489.19
2022-07-28T08:18:00.585Z,96481.66
2022-07-28T08:20:28.500Z,96483.97
2022-07-28T08:22:57.818Z,96478.44
2022-07-28T08:25:25.970Z,96471.47
2022-07-28T08:27:53.913Z,96476.50
2022-07-28T08:30:25.245Z,96475.09
2022-07-28T08:32:57.369Z,96475.81
2022-07-28T08:35:35.068Z,96475.47
2022-07-28T08:38:05.313Z,96479.19
2022-07-28T08:40:33.609Z,96470.97
2022-07-28T08:43:08.419Z,96468.66
2022-07-28T08:45:37.576Z,96472.72
2022-07-28T08:48:09.811Z,96476.94
2022-07-28T08:50:39.252Z,96473.41
2022-07-28T08:53:08.183Z,96471.13
2022-07-28T08:55:37.413Z,96476.56
2022-07-28T08:58:05.894Z,96475.56
2022-07-28T09:00:34.303Z,96483.84
2022-07-28T09:03:04.541Z,96472.66
2022-07-28T09:05:34.569Z,96470.81
2022-07-28T09:08:03.909Z,96467.28
2022-07-28T09:10:34.053Z,96476.44
2022-07-28T09:13:02.021Z,96466.19
2022-07-28T09:15:30.316Z,96469.75
2022-07-28T09:17:58.286Z,96474.28
2022-07-28T09:20:28.870Z,96466.97
2022-07-28T09:23:00.255Z,96471.78
2022-07-28T09:25:29.062Z,96468.91
2022-07-28T09:27:57.769Z,96469.31
2022-07-28T09:30:30.868Z,96469.38
2022-07-28T09:33:42.028Z,96466.69
2022-07-28T09:36:15.105Z,96471.28
2022-07-28T09:38:44.407Z,96467.34
2022-07-28T09:41:12.580Z,96460.88
2022-07-28T09:43:43.371Z,96459.66
2022-07-28T09:46:13.683Z,96461.56
2022-07-28T09:48:53.981Z,96458.44
2022-07-28T09:51:24.368Z,96449.97
2022-07-28T09:53:54.297Z,96456.00
2022-07-28T09:56:25.904Z,96446.84
2022-07-28T09:58:55.221Z,96446.88
2022-07-28T10:01:24.542Z,96449.13
2022-07-28T10:03:55.928Z,96447.72
2022-07-28T10:06:29.191Z,96443.78
2022-07-28T10:09:00.213Z,96432.59
2022-07-28T10:11:30.301Z,96440.91
2022-07-28T10:14:02.706Z,96442.97
2022-07-28T10:16:32.570Z,96442.53
2022-07-28T10:19:02.252Z,96420.75
2022-07-28T10:21:33.152Z,96426.53
2022-07-28T10:24:06.997Z,96432.94
2022-07-28T10:26:39.328Z,96433.78
2022-07-28T10:29:08.617Z,96424.63
2022-07-28T10:31:45.058Z,96420.28
2022-07-28T10:34:24.531Z,96430.00
2022-07-28T10:36:55.570Z,96416.13
2022-07-28T10:39:29.799Z,96421.28
2022-07-28T10:41:57.716Z,96425.22
2022-07-28T10:44:25.972Z,96426.66
2022-07-28T10:46:55.738Z,96415.66
2022-07-28T10:49:27.455Z,96415.81
2022-07-28T10:52:04.971Z,96411.03
2022-07-28T10:54:47.465Z,96412.88
2022-07-28T10:57:17.407Z,96414.53
2022-07-28T11:00:12.295Z,96417.66
2022-07-28T11:02:52.209Z,96416.81
2022-07-28T11:05:37.711Z,96413.00
2022-07-28T11:08:11.353Z,96405.47
2022-07-28T11:10:49.804Z,96405.84
2022-07-28T11:13:29.161Z,96406.63
2022-07-28T11:15:58.270Z,96414.00
2022-07-28T11:18:29.099Z,96405.06
2022-07-28T11:21:10.928Z,96394.66
2022-07-28T11:23:54.427Z,96403.31
2022-07-28T11:26:39.149Z,96390.31
2022-07-28T11:29:25.088Z,96403.59
2022-07-28T11:32:00.537Z,96415.13
2022-07-28T11:34:28.631Z,96397.56
2022-07-28T11:37:02.466Z,96388.09
2022-07-28T11:39:31.693Z,96389.38
2022-07-28T11:42:30.796Z,96394.06
2022-07-28T11:45:37.865Z,96398.31
2022-07-28T11:48:14.752Z,96396.53
2022-07-28T11:50:42.806Z,96395.81
2022-07-28T11:53:11.770Z,96388.88
2022-07-28T11:55:55.823Z,96381.06
2022-07-28T11:58:29.139Z,96382.16
2022-07-28T12:01:13.540Z,96372.25
2022-07-28T12:03:49.350Z,96371.75
2022-07-28T12:06:26.279Z,96381.63
2022-07-28T12:08:58.875Z,96378.38
2022-07-28T12:11:28.955Z,96378.59
2022-07-28T12:14:01.561Z,96377.84
2022-07-28T12:16:30.283Z,96377.25
2022-07-28T12:19:00.593Z,96364.78
2022-07-28T12:21:48.052Z,96368.75
2022-07-28T12:24:19.382Z,96377.84
2022-07-28T12:26:49.931Z,96366.84
2022-07-28T12:29:20.585Z,96364.88
2022-07-28T12:31:54.672Z,96368.19
2022-07-28T12:34:24.338Z,96366.28
2022-07-28T12:36:59.813Z,96368.69
2022-07-28T12:39:28.188Z,96354.53
2022-07-28T12:42:04.706Z,96351.47
2022-07-28T12:44:41.866Z,96356.53
2022-07-28T12:47:12.379Z,96359.44
2022-07-28T12:49:42.619Z,96353.53
2022-07-28T12:52:18.231Z,96359.03
2022-07-28T12:54:53.312Z,96351.34
2022-07-28T12:57:46.158Z,96345.72
2022-07-28T13:00:20.635Z,96343.84
2022-07-28T13:02:49.068Z,96343.13
2022-07-28T13:05:31.314Z,96338.53
2022-07-28T13:08:02.283Z,96351.13
2022-07-28T13:10:31.369Z,96345.59
2022-07-28T13:13:04.052Z,96346.66
2022-07-28T13:15:33.669Z,96345.50
2022-07-28T13:18:01.604Z,96343.13
2022-07-28T13:20:29.957Z,96337.72
2022-07-28T13:22:57.872Z,96333.06
2022-07-28T13:25:25.880Z,96330.91
2022-07-28T13:27:55.340Z,96329.84
2022-07-28T13:30:24.463Z,96323.84
2022-07-28T13:32:54.791Z,96317.00
2022-07-28T13:35:24.150Z,96317.16
2022-07-28T13:37:52.109Z,96317.22
2022-07-28T13:40:20.077Z,96312.41
2022-07-28T13:42:53.127Z,96311.50
2022-07-28T13:45:30.306Z,96313.16
2022-07-28T13:47:59.780Z,96308.78
2022-07-28T13:50:27.889Z,96302.63
2022-07-28T13:52:55.917Z,96304.78
2022-07-28T13:55:23.981Z,96313.66
2022-07-28T13:57:55.191Z,96310.56
2022-07-28T14:00:24.995Z,96301.59
2022-07-28T14:02:53.001Z,96303.03
2022-07-28T14:05:22.335Z,96307.25
2022-07-28T14:07:50.681Z,96297.94
2022-07-28T14:10:19.032Z,96297.13
2022-07-28T14:12:46.990Z,96292.56
2022-07-28T14:15:15.258Z,96278.03
2022-07-28T14:17:45.472Z,96285.47
2022-07-28T14:20:15.305Z,96274.03
2022-07-28T14:22:46.531Z,96268.97
2022-07-28T14:25:21.232Z,96270.00
2022-07-28T14:27:50.786Z,96265.88
2022-07-28T14:30:19.166Z,96272.00
2022-07-28T14:32:47.268Z,96268.34
2022-07-28T14:35:15.309Z,96268.94
2022-07-28T14:38:34.304Z,96266.00
2022-07-28T14:40:33.168Z,96259.88
2022-07-28T14:43:07.744Z,96265.88
2022-07-28T14:45:51.507Z,96265.66
2022-07-28T14:48:24.250Z,96264.00
2022-07-28T14:50:52.416Z,96262.69
2022-07-28T14:53:22.211Z,96264.81
2022-07-28T14:55:50.404Z,96261.16
2022-07-28T14:58:18.321Z,96259.63
2022-07-28T15:00:46.341Z,96259.13
2022-07-28T15:03:14.318Z,96254.69
2022-07-28T15:05:42.197Z,96262.22
2022-07-28T15:08:10.191Z,96255.88
2022-07-28T15:10:39.966Z,96251.16
2022-07-28T15:13:07.918Z,96248.66
2022-07-28T15:15:39.442Z,96256.56
2022-07-28T15:18:11.457Z,96246.41
2022-07-28T15:20:40.321Z,96246.16
2022-07-28T15:23:09.453Z,96243.78
2022-07-28T15:25:37.565Z,96246.03
2022-07-28T15:28:07.033Z,96242.47
2022-07-28T15:30:34.904Z,96247.91
2022-07-28T15:33:09.344Z,96250.03
2022-07-28T15:35:56.525Z,96247.53
2022-07-28T15:38:25.578Z,96253.53
2022-07-28T15:40:53.475Z,96246.56
2022-07-28T15:43:23.629Z,96246.66
2022-07-28T15:45:52.325Z,96238.78
2022-07-28T15:48:20.243Z,96237.50
2022-07-28T15:50:48.788Z,96239.25
2022-07-28T15:53:17.016Z,96227.91
2022-07-28T15:55:50.537Z,96231.78
2022-07-28T15:58:19.278Z,96230.41
2022-07-28T16:00:48.647Z,96235.03
2022-07-28T16:03:16.645Z,96229.59
2022-07-28T16:05:49.304Z,96233.53
2022-07-28T16:08:18.101Z,96221.84
2022-07-28T16:10:51.318Z,96227.59
2022-07-28T16:13:31.415Z,96221.84
2022-07-28T16:16:07.374Z,96230.81
2022-07-28T16:18:36.473Z,96227.56
2022-07-28T16:21:05.203Z,96226.19
2022-07-28T16:23:33.676Z,96226.88
2022-07-28T16:26:01.721Z,96223.25
2022-07-28T16:28:29.607Z,96224.06
2022-07-28T16:30:57.630Z,96220.75
2022-07-28T16:33:26.889Z,96208.13
2022-07-28T16:35:54.833Z,96209.69
2022-07-28T16:38:22.780Z,96207.84
2022-07-28T16:40:50.830Z,96208.31
2022-07-28T16:43:18.762Z,96206.44
2022-07-28T16:45:46.629Z,96204.13
2022-07-28T16:48:14.533Z,96216.09
2022-07-28T16:50:46.113Z,96207.34
2022-07-28T16:53:14.757Z,96201.72
2022-07-28T16:55:42.982Z,96206.06
2022-07-28T16:58:11.327Z,96209.84
2022-07-28T17:00:39.200Z,96214.22
2022-07-28T17:03:07.263Z,96201.72
2022-07-28T17:05:38.993Z,96209.38
2022-07-28T17:08:08.305Z,96218.44
2022-07-28T17:10:36.164Z,96220.72
2022-07-28T17:13:04.082Z,96212.69
2022-07-28T17:15:32.044Z,96212.59
2022-07-28T17:17:59.882Z,96218.94
2022-07-28T17:20:27.829Z,96216.34
2022-07-28T17:22:55.706Z,96227.03
2022-07-28T17:25:48.914Z,96231.28
2022-07-28T17:28:14.322Z,96228.44
2022-07-28T17:30:42.306Z,96236.44
2022-07-28T17:33:10.276Z,96241.53
2022-07-28T17:35:38.644Z,96239.50
2022-07-28T17:38:09.537Z,96242.91
2022-07-28T17:40:40.142Z,96241.72
2022-07-28T17:43:08.754Z,96242.63
2022-07-28T17:45:36.757Z,96244.41
2022-07-28T17:48:05.204Z,96239.47
2022-07-28T17:50:33.173Z,96241.78
2022-07-28T17:53:01.671Z,96242.47
2022-07-28T17:55:40.772Z,96243.38
2022-07-28T17:58:29.110Z,96238.66
2022-07-28T18:01:09.662Z,96238.75
2022-07-28T18:03:56.751Z,96238.84
2022-07-28T18:06:29.802Z,96239.50
2022-07-28T18:09:05.930Z,96242.31
2022-07-28T18:11:55.579Z,96240.06
2022-07-28T18:14:27.243Z,96249.69
2022-07-28T18:16:55.821Z,96240.34
2022-07-28T18:19:23.804Z,96243.53
2022-07-28T18:21:51.707Z,96233.59
2022-07-28T18:24:21.903Z,96237.38
2022-07-28T18:26:50.532Z,96241.13
2022-07-28T18:29:20.178Z,96240.75
2022-07-28T18:31:51.448Z,96242.88
2022-07-28T18:34:23.779Z,96237.09
2022-07-28T18:36:53.359Z,96244.00
2022-07-28T18:39:21.509Z,96240.09
2022-07-28T18:41:49.409Z,96238.88
2022-07-28T18:44:18.590Z,96235.78
2022-07-28T18:46:47.573Z,96234.78
2022-07-28T18:49:17.209Z,96236.72
2022-07-28T18:51:45.967Z,96233.41
2022-07-28T18:54:18.657Z,96244.69
2022-07-28T18:56:48.226Z,96240.19
2022-07-28T18:59:16.236Z,96245.00
2022-07-28T19:01:44.340Z,96247.78
2022-07-28T19:04:12.574Z,96246.34
2022-07-28T19:06:43.259Z,96255.94
2022-07-28T19:09:11.182Z,96255.53
2022-07-28T19:11:45.371Z,96267.41
2022-07-28T19:14:14.431Z,96278.91
2022-07-28T19:16:42.580Z,96272.88
2022-07-28T19:19:10.909Z,96283.09
2022-07-28T19:21:43.148Z,96278.94
2022-07-28T19:24:13.882Z,96282.09
2022-07-28T19:26:43.045Z,96286.06
2022-07-28T19:29:11.071Z,96294.41
2022-07-28T19:31:39.648Z,96302.94
2022-07-28T19:34:07.484Z,96302.34
2022-07-28T19:40:19.716Z,96311.53
2022-07-28T19:42:48.397Z,96312.78
2022-07-28T19:45:16.758Z,96313.44
2022-07-28T19:47:44.632Z,96318.22
2022-07-28T19:50:12.585Z,96320.53
2022-07-28T19:52:40.542Z,96331.56
2022-07-28T19:55:09.253Z,96340.72
2022-07-28T19:57:38.514Z,96350.28
2022-07-28T20:00:08.073Z,96364.84
2022-07-28T20:02:41.651Z,96385.22
2022-07-28T20:05:10.668Z,96400.81
2022-07-28T20:07:38.937Z,96418.09
2022-07-28T20:10:07.642Z,96423.94
2022-07-28T20:12:36.954Z,96430.44
2022-07-28T20:15:07.537Z,96433.34
2022-07-28T20:17:38.975Z,96439.38
2022-07-28T20:20:09.458Z,96441.69
2022-07-28T20:22:37.623Z,96439.84
2022-07-28T20:25:09.546Z,96439.22
2022-07-28T20:27:40.237Z,96437.78
2022-07-28T20:30:11.476Z,96446.06
2022-07-28T20:32:40.535Z,96448.97
2022-07-28T20:35:11.400Z,96453.50
2022-07-28T20:37:39.886Z,96459.91
2022-07-28T20:40:08.799Z,96453.44
2022-07-28T20:42:37.104Z,96464.00
2022-07-28T20:45:06.192Z,96471.84
2022-07-28T20:47:35.605Z,96472.22
2022-07-28T20:50:05.197Z,96477.19
2022-07-28T20:52:34.008Z,96487.34
2022-07-28T20:57:29.787Z,96487.91
2022-07-28T20:59:57.721Z,96486.81
2022-07-28T21:02:25.716Z,96484.69
2022-07-28T21:04:55.016Z,96476.59
2022-07-28T21:08:00.153Z,96477.41
2022-07-28T21:10:11.757Z,96473.34
2022-07-28T21:12:40.004Z,96478.47
2022-07-28T21:15:09.886Z,96474.13
2022-07-28T21:17:37.913Z,96468.13
2022-07-28T21:20:08.195Z,96479.47
2022-07-28T21:22:36.101Z,96471.94
2022-07-28T21:25:04.087Z,96481.03
2022-07-28T21:27:52.717Z,96488.72
2022-07-28T21:30:19.714Z,96492.38
2022-07-28T21:32:56.186Z,96489.59
2022-07-28T21:35:25.636Z,96492.56
2022-07-28T21:37:53.687Z,96492.94
2022-07-28T21:40:21.695Z,96501.09
2022-07-28T21:42:49.570Z,96506.50
2022-07-28T21:45:17.736Z,96508.38
2022-07-28T21:47:45.668Z,96507.63
2022-07-28T21:50:14.162Z,96503.66
2022-07-28T21:52:43.495Z,96507.31
2022-07-28T21:55:11.613Z,96504.81
2022-07-28T21:57:39.683Z,96508.91
2022-07-28T22:00:10.948Z,96508.47
2022-07-28T22:02:40.850Z,96506.78
2022-07-28T22:05:09.763Z,96503.47
2022-07-28T22:07:37.707Z,96498.09
2022-07-28T22:10:08.172Z,96494.31
2022-07-28T22:12:36.125Z,96491.84
2022-07-28T22:15:04.125Z,96494.25
2022-07-28T22:17:32.037Z,96498.78
2022-07-28T22:20:00.234Z,96507.06
2022-07-28T22:22:28.086Z,96512.38
2022-07-28T22:24:55.984Z,96526.47
2022-07-28T22:27:25.262Z,96541.94
2022-07-28T22:29:53.264Z,96540.00
2022-07-28T22:32:28.619Z,96542.06
2022-07-28T22:34:57.984Z,96546.13
2022-07-28T22:37:26.137Z,96549.47
2022-07-28T22:39:54.228Z,96538.03
2022-07-28T22:42:22.292Z,96533.47
2022-07-28T22:44:51.588Z,96520.59
2022-07-28T22:47:19.608Z,96519.41
2022-07-28T22:49:47.640Z,96513.38
2022-07-28T22:52:15.573Z,96513.75
2022-07-28T22:54:43.512Z,96517.44
2022-07-28T22:57:11.749Z,96512.06
2022-07-28T22:59:39.915Z,96510.59
2022-07-28T23:02:10.935Z,96510.16
2022-07-28T23:04:39.704Z,96509.97
2022-07-28T23:07:12.142Z,96507.47
2022-07-28T23:09:40.566Z,96508.47
2022-07-28T23:12:10.162Z,96497.94
2022-07-28T23:14:38.224Z,96500.78
2022-07-28T23:17:06.112Z,96494.59
2022-07-28T23:19:35.381Z,96495.81
2022-07-28T23:22:03.291Z,96490.44
2022-07-28T23:24:31.214Z,96498.66
2022-07-28T23:27:00.354Z,96493.94
2022-07-28T23:29:28.309Z,96495.16
2022-07-28T23:31:56.301Z,96490.72
2022-07-28T23:34:24.268Z,96487.84
2022-07-28T23:36:53.513Z,96498.41
2022-07-28T23:39:21.543Z,96496.53
2022-07-28T23:41:49.456Z,96491.16
2022-07-28T23:44:18.145Z,96483.13
2022-07-28T23:46:46.394Z,96488.88
2022-07-28T23:49:14.720Z,96485.94
2022-07-28T23:51:47.403Z,96489.63
2022-07-28T23:54:18.172Z,96486.94
2022-07-28T23:56:46.362Z,96483.41
2022-07-28T23:59:14.928Z,96487.31
